createdAt,value
2018-07-19T00:01:46.041Z,20.20
2018-07-19T00:04:13.707Z,20.20
2018-07-19T00:06:41.362Z,20.20
2018-07-19T00:09:09.820Z,20.10
2018-07-19T00:11:37.573Z,20.00
2018-07-19T00:14:05.276Z,20.00
2018-07-19T00:16:32.933Z,20.00
2018-07-19T00:19:00.659Z,20.00
2018-07-19T00:21:28.231Z,20.00
2018-07-19T00:23:55.893Z,20.00
2018-07-19T00:26:23.584Z,19.90
2018-07-19T00:28:51.267Z,19.80
2018-07-19T00:31:19.019Z,19.80
2018-07-19T00:33:46.678Z,19.80
2018-07-19T00:36:14.339Z,19.70
2018-07-19T00:38:41.994Z,19.70
2018-07-19T00:41:09.652Z,19.80
2018-07-19T00:43:37.608Z,19.90
2018-07-19T00:46:05.228Z,19.90
2018-07-19T00:48:32.809Z,19.90
2018-07-19T00:51:00.469Z,19.90
2018-07-19T00:53:28.122Z,19.90
2018-07-19T00:55:55.813Z,19.90
2018-07-19T00:58:23.494Z,19.90
2018-07-19T01:00:51.117Z,19.90
2018-07-19T01:03:18.738Z,19.80
2018-07-19T01:05:46.426Z,19.80
2018-07-19T01:08:14.046Z,19.70
2018-07-19T01:10:41.750Z,19.80
2018-07-19T01:13:09.427Z,19.70
2018-07-19T01:15:37.094Z,19.80
2018-07-19T01:18:05.213Z,19.70
2018-07-19T01:20:32.853Z,19.60
2018-07-19T01:23:00.535Z,19.60
2018-07-19T01:25:28.256Z,19.50
2018-07-19T01:27:55.892Z,19.50
2018-07-19T01:30:23.533Z,19.50
2018-07-19T01:32:51.263Z,19.50
2018-07-19T01:35:18.957Z,19.50
2018-07-19T01:37:46.655Z,19.50
2018-07-19T01:40:14.321Z,19.40
2018-07-19T01:42:43.238Z,19.50
2018-07-19T01:45:11.570Z,19.40
2018-07-19T01:47:39.472Z,19.30
2018-07-19T01:50:08.264Z,19.30
2018-07-19T01:52:35.985Z,19.20
2018-07-19T01:55:04.078Z,19.10
2018-07-19T01:57:31.773Z,19.10
2018-07-19T01:59:59.503Z,19.00
2018-07-19T02:02:27.275Z,18.90
2018-07-19T02:04:55.012Z,18.80
2018-07-19T02:07:22.704Z,18.80
2018-07-19T02:09:50.382Z,18.80
2018-07-19T02:12:18.073Z,18.70
2018-07-19T02:14:45.736Z,18.70
2018-07-19T02:17:13.376Z,18.60
2018-07-19T02:19:41.069Z,18.60
2018-07-19T02:22:08.728Z,18.50
2018-07-19T02:24:36.390Z,18.50
2018-07-19T02:27:04.100Z,18.40
2018-07-19T02:29:31.672Z,18.40
2018-07-19T02:31:59.274Z,18.30
2018-07-19T02:34:26.963Z,18.30
2018-07-19T02:37:00.536Z,18.20
2018-07-19T02:39:28.206Z,18.30
2018-07-19T02:41:55.939Z,18.30
2018-07-19T02:44:23.542Z,18.20
2018-07-19T02:46:51.188Z,18.10
2018-07-19T02:49:18.913Z,18.10
2018-07-19T02:51:46.579Z,18.00
2018-07-19T02:54:14.218Z,18.00
2018-07-19T02:56:41.874Z,18.00
2018-07-19T02:59:09.598Z,18.00
2018-07-19T03:01:37.300Z,18.00
2018-07-19T03:04:04.952Z,17.90
2018-07-19T03:06:32.636Z,17.90
2018-07-19T03:09:00.278Z,17.90
2018-07-19T03:11:27.929Z,17.90
2018-07-19T03:13:55.547Z,17.80
2018-07-19T03:16:23.287Z,17.80
2018-07-19T03:18:50.935Z,17.80
2018-07-19T03:21:18.588Z,17.80
2018-07-19T03:23:46.261Z,17.80
2018-07-19T03:26:14.060Z,17.80
2018-07-19T03:28:41.755Z,17.80
2018-07-19T03:31:09.703Z,17.80
2018-07-19T03:33:37.286Z,17.80
2018-07-19T03:36:05.059Z,17.70
2018-07-19T03:38:32.742Z,17.80
2018-07-19T03:41:00.403Z,17.80
2018-07-19T03:43:28.058Z,17.80
2018-07-19T03:45:55.710Z,17.80
2018-07-19T03:48:23.446Z,17.80
2018-07-19T03:50:51.161Z,17.80
2018-07-19T03:53:18.858Z,17.80
2018-07-19T03:55:46.557Z,17.80
2018-07-19T04:00:42.031Z,17.80
2018-07-19T04:03:09.651Z,17.80
2018-07-19T04:05:37.328Z,17.80
2018-07-19T04:08:05.200Z,17.90
2018-07-19T04:10:32.882Z,17.90
2018-07-19T04:13:01.705Z,18.00
2018-07-19T04:15:29.323Z,18.10
2018-07-19T04:17:57.788Z,17.90
2018-07-19T04:20:26.517Z,17.90
2018-07-19T04:22:54.921Z,17.90
2018-07-19T04:25:23.071Z,17.90
2018-07-19T04:27:51.001Z,17.90
2018-07-19T04:30:18.673Z,18.00
2018-07-19T04:32:46.371Z,18.00
2018-07-19T04:35:13.959Z,17.90
2018-07-19T04:37:41.620Z,18.00
2018-07-19T04:40:09.337Z,18.00
2018-07-19T04:42:37.201Z,18.00
2018-07-19T04:45:05.392Z,18.20
2018-07-19T04:47:33.052Z,18.30
2018-07-19T04:50:00.642Z,18.20
2018-07-19T04:52:28.302Z,18.20
2018-07-19T04:54:56.297Z,18.20
2018-07-19T04:57:24.032Z,18.20
2018-07-19T04:59:51.742Z,18.30
2018-07-19T05:02:19.750Z,18.40
2018-07-19T05:04:47.358Z,18.50
2018-07-19T05:07:15.000Z,18.50
2018-07-19T05:09:42.917Z,18.60
2018-07-19T05:12:10.594Z,18.70
2018-07-19T05:14:38.288Z,18.60
2018-07-19T05:17:05.956Z,18.80
2018-07-19T05:19:33.567Z,19.00
2018-07-19T05:22:01.226Z,19.10
2018-07-19T05:24:28.909Z,19.20
2018-07-19T05:26:56.493Z,19.30
2018-07-19T05:29:24.187Z,19.30
2018-07-19T05:31:51.838Z,19.40
2018-07-19T05:34:26.188Z,19.30
2018-07-19T05:36:53.867Z,19.30
2018-07-19T05:39:21.480Z,19.50
2018-07-19T05:41:49.165Z,19.80
2018-07-19T05:44:16.790Z,19.90
2018-07-19T05:46:44.520Z,20.00
2018-07-19T05:49:12.201Z,20.20
2018-07-19T05:51:39.824Z,20.30
2018-07-19T05:54:07.494Z,19.90
2018-07-19T05:56:35.149Z,20.10
2018-07-19T05:59:02.811Z,20.10
2018-07-19T06:01:30.450Z,20.20
2018-07-19T06:03:58.118Z,20.20
2018-07-19T06:06:25.758Z,20.30
2018-07-19T06:08:53.413Z,20.40
2018-07-19T06:11:21.101Z,20.60
2018-07-19T06:13:48.759Z,20.70
2018-07-19T06:16:16.473Z,20.70
2018-07-19T06:18:44.229Z,21.00
2018-07-19T06:21:11.909Z,21.00
2018-07-19T06:23:39.599Z,21.00
2018-07-19T06:26:07.244Z,20.80
2018-07-19T06:28:35.045Z,20.60
2018-07-19T06:31:02.877Z,20.60
2018-07-19T06:33:30.637Z,21.00
2018-07-19T06:35:58.728Z,20.90
2018-07-19T06:38:26.429Z,20.70
2018-07-19T06:40:54.148Z,20.70
2018-07-19T06:43:21.942Z,20.90
2018-07-19T06:45:49.610Z,20.90
2018-07-19T06:48:17.290Z,21.00
2018-07-19T06:50:44.992Z,20.80
2018-07-19T06:53:12.674Z,21.50
2018-07-19T06:55:40.368Z,21.90
2018-07-19T06:58:08.022Z,21.60
2018-07-19T07:00:35.693Z,21.70
2018-07-19T07:03:03.354Z,21.50
2018-07-19T07:05:31.078Z,21.40
2018-07-19T07:07:58.753Z,21.30
2018-07-19T07:10:26.377Z,21.40
2018-07-19T07:12:54.143Z,21.40
2018-07-19T07:15:21.767Z,21.80
2018-07-19T07:17:49.435Z,22.10
2018-07-19T07:20:17.143Z,22.40
2018-07-19T07:22:44.833Z,22.10
2018-07-19T07:25:12.568Z,22.10
2018-07-19T07:27:40.339Z,22.20
2018-07-19T07:30:08.050Z,22.30
2018-07-19T07:32:35.792Z,22.50
2018-07-19T07:35:04.407Z,22.30
2018-07-19T07:37:32.094Z,22.10
2018-07-19T07:39:59.778Z,22.30
2018-07-19T07:42:27.544Z,22.80
2018-07-19T07:44:55.366Z,22.60
2018-07-19T07:47:23.383Z,22.50
2018-07-19T07:49:51.055Z,22.90
2018-07-19T07:52:18.761Z,22.70
2018-07-19T07:54:46.478Z,22.80
2018-07-19T07:57:14.194Z,22.80
2018-07-19T07:59:41.881Z,22.80
2018-07-19T08:02:10.014Z,22.70
2018-07-19T08:04:38.550Z,22.60
2018-07-19T08:07:06.225Z,22.70
2018-07-19T08:09:33.984Z,22.40
2018-07-19T08:12:02.000Z,22.60
2018-07-19T08:14:29.742Z,22.80
2018-07-19T08:16:57.606Z,22.90
2018-07-19T08:19:25.266Z,22.70
2018-07-19T08:21:52.956Z,22.90
2018-07-19T08:24:20.772Z,22.80
2018-07-19T08:26:48.550Z,22.80
2018-07-19T08:29:16.295Z,22.90
2018-07-19T08:31:44.197Z,23.20
2018-07-19T08:34:11.975Z,23.30
2018-07-19T08:36:39.920Z,23.10
2018-07-19T08:39:10.754Z,23.60
2018-07-19T08:41:38.502Z,23.60
2018-07-19T08:46:40.791Z,23.70
2018-07-19T08:49:08.508Z,23.70
2018-07-19T08:54:03.956Z,23.70
2018-07-19T08:56:31.764Z,23.70
2018-07-19T08:58:59.422Z,23.70
2018-07-19T09:01:27.073Z,24.00
2018-07-19T09:03:54.844Z,24.70
2018-07-19T09:06:22.453Z,25.10
2018-07-19T09:08:50.114Z,24.80
2018-07-19T09:11:18.080Z,24.90
2018-07-19T09:13:46.348Z,25.00
2018-07-19T09:16:14.012Z,25.10
2018-07-19T09:18:41.707Z,25.00
2018-07-19T09:21:09.486Z,24.60
2018-07-19T09:23:37.271Z,24.40
2018-07-19T09:26:04.954Z,24.40
2018-07-19T09:28:32.622Z,24.30
2018-07-19T09:31:00.381Z,24.30
2018-07-19T09:33:28.087Z,24.60
2018-07-19T09:35:55.727Z,24.70
2018-07-19T09:38:23.488Z,24.60
2018-07-19T09:43:18.988Z,24.40
2018-07-19T09:45:46.768Z,24.80
2018-07-19T09:48:14.450Z,25.10
2018-07-19T09:50:42.181Z,25.30
2018-07-19T09:53:09.870Z,25.30
2018-07-19T09:55:37.658Z,25.60
2018-07-19T09:58:05.673Z,25.70
2018-07-19T10:01:37.994Z,25.50
2018-07-19T10:04:06.159Z,24.90
2018-07-19T10:06:33.803Z,25.20
2018-07-19T10:09:01.473Z,25.80
2018-07-19T10:11:29.188Z,26.20
2018-07-19T10:13:56.868Z,26.30
2018-07-19T10:16:24.515Z,25.70
2018-07-19T10:18:52.199Z,25.50
2018-07-19T10:21:19.941Z,26.00
2018-07-19T10:23:47.600Z,26.30
2018-07-19T10:26:15.221Z,26.50
2018-07-19T10:28:43.099Z,26.30
2018-07-19T10:31:10.838Z,26.30
2018-07-19T10:33:38.514Z,26.00
2018-07-19T10:36:06.271Z,26.00
2018-07-19T10:38:33.909Z,25.90
2018-07-19T10:41:01.662Z,25.70
2018-07-19T10:43:29.375Z,25.80
2018-07-19T10:48:24.890Z,25.90
2018-07-19T10:50:52.558Z,25.90
2018-07-19T10:53:20.150Z,26.40
2018-07-19T10:55:47.914Z,26.30
2018-07-19T10:58:15.638Z,25.90
2018-07-19T11:00:43.462Z,25.50
2018-07-19T11:03:11.122Z,25.30
2018-07-19T11:05:38.871Z,25.50
2018-07-19T11:08:06.539Z,26.10
2018-07-19T11:10:34.291Z,26.60
2018-07-19T11:13:02.065Z,26.20
2018-07-19T11:15:29.846Z,26.50
2018-07-19T11:17:57.465Z,26.60
2018-07-19T11:20:25.248Z,26.50
2018-07-19T11:22:52.962Z,26.50
2018-07-19T11:25:21.163Z,26.60
2018-07-19T11:27:48.839Z,27.00
2018-07-19T11:30:16.623Z,27.10
2018-07-19T11:32:44.395Z,26.90
2018-07-19T11:35:12.099Z,26.50
2018-07-19T11:37:39.802Z,26.60
2018-07-19T11:40:07.579Z,26.90
2018-07-19T11:42:35.303Z,26.50
2018-07-19T11:45:02.994Z,26.40
2018-07-19T11:47:30.756Z,26.60
2018-07-19T11:49:58.546Z,27.10
2018-07-19T11:52:26.295Z,27.50
2018-07-19T11:54:54.012Z,27.50
2018-07-19T11:57:21.913Z,27.70
2018-07-19T11:59:49.620Z,28.10
2018-07-19T12:02:17.268Z,28.00
2018-07-19T12:04:45.000Z,28.70
2018-07-19T12:07:12.707Z,30.60
2018-07-19T12:09:40.447Z,31.10
2018-07-19T12:12:08.262Z,30.90
2018-07-19T12:14:35.921Z,29.30
2018-07-19T12:17:03.667Z,29.00
2018-07-19T12:19:31.393Z,30.30
2018-07-19T12:21:59.311Z,33.20
2018-07-19T12:24:27.019Z,34.70
2018-07-19T12:26:54.740Z,36.00
2018-07-19T12:29:22.431Z,35.60
2018-07-19T12:31:50.149Z,35.90
2018-07-19T12:34:17.909Z,34.90
2018-07-19T12:36:45.675Z,35.00
2018-07-19T12:39:13.408Z,33.70
2018-07-19T12:41:41.590Z,33.70
2018-07-19T12:44:09.516Z,34.10
2018-07-19T12:46:37.597Z,33.20
2018-07-19T12:49:05.790Z,31.80
2018-07-19T12:51:33.647Z,33.10
2018-07-19T12:54:01.436Z,34.40
2018-07-19T12:56:29.171Z,36.60
2018-07-19T12:58:57.240Z,37.20
2018-07-19T13:01:24.840Z,36.90
2018-07-19T13:03:52.490Z,38.30
2018-07-19T13:06:20.153Z,37.80
2018-07-19T13:08:47.806Z,37.00
2018-07-19T13:11:15.487Z,36.30
2018-07-19T13:13:43.363Z,36.60
2018-07-19T13:18:39.414Z,39.40
2018-07-19T13:21:07.214Z,40.10
2018-07-19T13:23:35.022Z,39.90
2018-07-19T13:26:02.857Z,37.10
2018-07-19T13:28:30.797Z,37.20
2018-07-19T13:30:58.479Z,38.30
2018-07-19T13:33:26.193Z,35.40
2018-07-19T13:35:53.909Z,36.80
2018-07-19T13:38:21.531Z,36.30
2018-07-19T13:40:49.821Z,36.30
2018-07-19T13:43:17.494Z,37.40
2018-07-19T13:45:45.261Z,37.10
2018-07-19T13:48:12.867Z,36.70
2018-07-19T13:50:40.716Z,35.90
2018-07-19T13:53:41.093Z,34.40
2018-07-19T13:56:09.190Z,32.90
2018-07-19T13:58:37.621Z,32.10
2018-07-19T14:01:05.382Z,31.40
2018-07-19T14:03:33.270Z,32.00
2018-07-19T14:06:01.404Z,34.70
2018-07-19T14:08:29.034Z,37.40
2018-07-19T14:10:56.810Z,38.30
2018-07-19T14:13:24.489Z,38.80
2018-07-19T14:15:53.105Z,37.50
2018-07-19T14:18:20.975Z,39.30
2018-07-19T14:20:49.129Z,41.60
2018-07-19T14:23:16.824Z,42.60
2018-07-19T14:25:44.490Z,40.70
2018-07-19T14:28:12.415Z,37.70
2018-07-19T14:30:40.403Z,37.50
2018-07-19T14:33:08.544Z,38.30
2018-07-19T14:35:36.289Z,40.20
2018-07-19T14:38:03.891Z,41.80
2018-07-19T14:40:31.516Z,42.70
2018-07-19T14:42:59.256Z,43.10
2018-07-19T14:45:26.901Z,43.70
2018-07-19T14:47:54.635Z,43.30
2018-07-19T14:50:22.497Z,42.90
2018-07-19T14:52:50.266Z,42.50
2018-07-19T14:55:17.984Z,42.90
2018-07-19T14:57:45.691Z,42.10
2018-07-19T15:00:13.439Z,42.10
2018-07-19T15:02:41.281Z,42.10
2018-07-19T15:05:09.010Z,42.90
2018-07-19T15:07:36.767Z,43.50
2018-07-19T15:10:04.958Z,43.70
2018-07-19T15:12:32.616Z,44.50
2018-07-19T15:15:00.286Z,44.30
2018-07-19T15:17:27.916Z,44.70
2018-07-19T15:19:55.667Z,44.30
2018-07-19T15:22:23.313Z,44.00
2018-07-19T15:24:51.039Z,45.10
2018-07-19T15:29:46.549Z,45.80
2018-07-19T15:32:14.235Z,44.90
2018-07-19T15:34:41.893Z,44.70
2018-07-19T15:39:37.228Z,45.20
2018-07-19T15:42:04.902Z,45.40
2018-07-19T15:44:32.544Z,44.80
2018-07-19T15:47:00.267Z,45.10
2018-07-19T15:49:27.986Z,45.00
2018-07-19T15:51:55.734Z,44.60
2018-07-19T15:54:23.478Z,44.90
2018-07-19T15:56:51.138Z,44.30
2018-07-19T15:59:18.944Z,44.60
2018-07-19T16:01:46.647Z,43.50
2018-07-19T16:04:14.305Z,43.80
2018-07-19T16:06:42.101Z,41.50
2018-07-19T16:09:11.290Z,40.40
2018-07-19T16:11:39.056Z,40.60
2018-07-19T16:14:06.908Z,40.70
2018-07-19T16:16:35.120Z,41.50
2018-07-19T16:19:02.775Z,42.50
2018-07-19T16:21:30.569Z,41.80
2018-07-19T16:26:25.950Z,41.80
2018-07-19T16:28:53.548Z,41.70
2018-07-19T16:31:21.155Z,42.50
2018-07-19T16:33:48.822Z,42.60
2018-07-19T16:36:16.514Z,43.00
2018-07-19T16:38:44.170Z,42.90
2018-07-19T16:41:11.828Z,41.20
2018-07-19T16:43:39.441Z,41.30
2018-07-19T16:46:07.267Z,41.70
2018-07-19T16:48:34.949Z,42.10
2018-07-19T16:51:02.575Z,41.40
2018-07-19T16:53:30.295Z,40.40
2018-07-19T16:55:57.983Z,40.30
2018-07-19T16:58:25.708Z,40.30
2018-07-19T17:00:53.497Z,39.90
2018-07-19T17:03:21.194Z,40.20
2018-07-19T17:05:48.875Z,39.70
2018-07-19T17:08:16.519Z,40.00
2018-07-19T17:10:44.156Z,39.40
2018-07-19T17:13:11.865Z,39.40
2018-07-19T17:15:39.539Z,39.40
2018-07-19T17:20:34.947Z,38.40
2018-07-19T17:23:02.748Z,38.50
2018-07-19T17:25:30.506Z,38.70
2018-07-19T17:27:58.178Z,37.90
2018-07-19T17:30:25.919Z,37.00
2018-07-19T17:32:53.523Z,37.20
2018-07-19T17:35:21.395Z,37.50
2018-07-19T17:37:49.055Z,38.00
2018-07-19T17:40:16.794Z,37.20
2018-07-19T17:42:44.495Z,36.10
2018-07-19T17:45:12.153Z,36.20
2018-07-19T17:47:39.893Z,36.50
2018-07-19T17:50:08.143Z,35.60
2018-07-19T17:52:35.893Z,34.90
2018-07-19T17:55:03.571Z,35.50
2018-07-19T17:57:31.334Z,35.40
2018-07-19T17:59:59.075Z,36.00
2018-07-19T18:02:26.843Z,35.70
2018-07-19T18:04:54.532Z,34.90
2018-07-19T18:07:22.228Z,34.80
2018-07-19T18:09:49.828Z,34.50
2018-07-19T18:12:17.549Z,33.70
2018-07-19T18:14:45.170Z,33.40
2018-07-19T18:17:12.839Z,33.00
2018-07-19T18:19:40.518Z,32.80
2018-07-19T18:22:08.258Z,32.10
2018-07-19T18:24:35.989Z,31.10
2018-07-19T18:27:03.642Z,30.00
2018-07-19T18:29:31.276Z,29.10
2018-07-19T18:31:58.908Z,28.50
2018-07-19T18:34:26.539Z,28.10
2018-07-19T18:36:54.129Z,27.60
2018-07-19T18:39:21.757Z,27.20
2018-07-19T18:41:49.517Z,26.70
2018-07-19T18:44:17.229Z,26.60
2018-07-19T18:46:44.889Z,26.30
2018-07-19T18:49:12.735Z,25.80
2018-07-19T18:51:40.613Z,25.70
2018-07-19T18:54:08.318Z,25.30
2018-07-19T18:56:35.965Z,25.30
2018-07-19T19:01:31.438Z,25.00
2018-07-19T19:03:59.006Z,24.90
2018-07-19T19:06:26.729Z,24.70
2018-07-19T19:08:54.337Z,24.60
2018-07-19T19:11:22.059Z,24.40
2018-07-19T19:13:49.650Z,24.10
2018-07-19T19:16:17.401Z,23.90
2018-07-19T19:18:45.528Z,23.80
2018-07-19T19:21:13.812Z,23.70
2018-07-19T19:23:41.606Z,23.50
2018-07-19T19:26:09.270Z,23.50
2018-07-19T19:28:36.972Z,23.30
2018-07-19T19:31:04.784Z,23.30
2018-07-19T19:33:32.663Z,23.20
2018-07-19T19:36:00.473Z,23.20
2018-07-19T19:38:28.143Z,23.10
2018-07-19T19:40:56.310Z,23.00
2018-07-19T19:43:24.384Z,22.80
2018-07-19T19:45:52.017Z,22.80
2018-07-19T19:48:19.755Z,22.70
2018-07-19T19:50:47.405Z,22.60
2018-07-19T19:53:15.039Z,22.50
2018-07-19T19:55:42.697Z,22.40
2018-07-19T19:58:10.359Z,22.40
2018-07-19T20:00:38.157Z,22.30
2018-07-19T20:03:05.839Z,22.20
2018-07-19T20:05:33.734Z,22.10
2018-07-19T20:08:01.457Z,22.00
2018-07-19T20:10:29.186Z,21.90
2018-07-19T20:12:56.917Z,21.70
2018-07-19T20:15:24.686Z,21.70
2018-07-19T20:17:52.403Z,21.50
2018-07-19T20:20:20.173Z,21.40
2018-07-19T20:22:47.958Z,21.20
2018-07-19T20:25:15.640Z,21.20
2018-07-19T20:27:43.486Z,21.00
2018-07-19T20:30:11.210Z,20.90
2018-07-19T20:32:38.928Z,20.80
2018-07-19T20:35:06.785Z,20.90
2018-07-19T20:37:34.634Z,20.80
2018-07-19T20:40:02.362Z,20.60
2018-07-19T20:42:30.006Z,20.60
2018-07-19T20:44:57.628Z,20.60
2018-07-19T20:47:25.305Z,20.50
2018-07-19T20:49:53.024Z,20.40
2018-07-19T20:52:20.730Z,20.20
2018-07-19T20:54:48.539Z,20.20
2018-07-19T20:57:16.253Z,20.10
2018-07-19T20:59:43.933Z,20.00
2018-07-19T21:02:11.861Z,20.00
2018-07-19T21:04:39.553Z,19.90
2018-07-19T21:07:07.292Z,20.00
2018-07-19T21:09:34.934Z,20.00
2018-07-19T21:12:02.689Z,20.00
2018-07-19T21:14:30.395Z,19.90
2018-07-19T21:16:58.141Z,19.90
2018-07-19T21:19:25.742Z,19.80
2018-07-19T21:21:53.473Z,19.70
2018-07-19T21:24:21.250Z,19.60
2018-07-19T21:26:48.911Z,19.60
2018-07-19T21:29:16.520Z,19.60
2018-07-19T21:31:44.105Z,19.40
2018-07-19T21:34:11.776Z,19.40
2018-07-19T21:36:39.441Z,19.40
2018-07-19T21:39:09.105Z,19.50
2018-07-19T21:41:36.794Z,19.40
2018-07-19T21:44:04.456Z,19.40
2018-07-19T21:46:32.108Z,19.40
2018-07-19T21:49:00.212Z,19.30
2018-07-19T21:51:27.918Z,19.20
2018-07-19T21:53:55.590Z,19.10
2018-07-19T21:56:23.294Z,19.10
2018-07-19T21:58:51.062Z,19.00
2018-07-19T22:01:18.932Z,19.00
2018-07-19T22:03:47.592Z,18.90
2018-07-19T22:06:15.285Z,18.90
2018-07-19T22:08:43.255Z,18.80
2018-07-19T22:11:11.235Z,18.80
2018-07-19T22:13:38.890Z,18.80
2018-07-19T22:16:06.555Z,18.90
2018-07-19T22:18:34.248Z,18.90
2018-07-19T22:21:01.911Z,18.80
2018-07-19T22:26:03.985Z,18.70
2018-07-19T22:28:31.598Z,18.70
2018-07-19T22:30:59.316Z,18.60
2018-07-19T22:33:26.963Z,18.60
2018-07-19T22:35:54.962Z,18.60
2018-07-19T22:40:57.134Z,18.60
2018-07-19T22:43:24.760Z,18.60
2018-07-19T22:45:52.368Z,18.60
2018-07-19T22:48:20.070Z,18.60
2018-07-19T22:50:47.634Z,18.60
2018-07-19T22:53:15.240Z,18.60
2018-07-19T22:55:42.871Z,18.50
2018-07-19T22:58:10.518Z,18.40
2018-07-19T23:00:38.153Z,18.40
2018-07-19T23:03:05.827Z,18.20
2018-07-19T23:05:33.473Z,18.10
2018-07-19T23:08:01.146Z,18.00
2018-07-19T23:10:28.779Z,18.00
2018-07-19T23:12:56.377Z,18.00
2018-07-19T23:15:24.028Z,18.00
2018-07-19T23:17:51.727Z,17.90
2018-07-19T23:20:19.387Z,17.90
2018-07-19T23:22:54.300Z,17.70
2018-07-19T23:25:22.002Z,17.80
2018-07-19T23:27:49.844Z,17.70
2018-07-19T23:30:17.998Z,17.70
2018-07-19T23:32:45.740Z,17.60
2018-07-19T23:35:13.398Z,17.60
2018-07-19T23:37:42.266Z,17.40
2018-07-19T23:40:14.492Z,17.40
2018-07-19T23:42:45.471Z,17.40
2018-07-19T23:45:16.490Z,17.40
2018-07-19T23:47:44.850Z,17.40
2018-07-19T23:50:12.500Z,17.30
2018-07-19T23:52:40.118Z,17.30
2018-07-19T23:55:07.784Z,17.30
2018-07-19T23:57:35.469Z,17.20
